Here is the Quick Look data you requested

The Data originates at the National Weather Service, and is made available here by the UAlbany Department of Atmospheric and Environmental Sciences

Surface Observations

K1V4 231754Z AUTO 19/06 A2984 RMK AO1 SLP100 T01940061 10194 20094 58018=
KBTV 231754Z 18007KT 140V210 10SM FEW050 BKN200 20/08 A2985 RMK AO2 SLP107
 T02000083 10200 20139 58014=
KDDH 231754Z AUTO VRB04KT 10SM CLR 18/08 A2989 RMK AO2 SLP119 T01830083 10183
 20117 58019=
KEFK 231755Z AUTO 24008KT 10SM CLR 18/07 A2985 RMK AO2 T01750070 10177 20097=
KMPV 231751Z AUTO 10SM CLR 17/07 A2991 RMK AO2 SLP129 T01720072 10183 20083
 58014=
KMVL 231754Z AUTO VRB04KT 10SM CLR 19/06 A2987 RMK AO2 SLP117 T01890061 10189
 20094 58013=
KRUT 231756Z AUTO VRB03KT 10SM CLR 18/08 A2989 RMK AO2 SLP140 T01780083 10183
 20111 58015 $=
KVSF 231754Z AUTO 28005KT 10SM CLR 21/06 A2986 RMK AO2 SLP112 T02060061 10206
 20106 58021=